sensor_id;sensor_type;location;lat;lon;timestamp;pressure;altitude;pressure_sealevel;temperature;humidity
21096;BME280;10706;49.036;12.112;2024-01-06T00:02:18;96488.50;;;7.32;82.35
21096;BME280;10706;49.036;12.112;2024-01-06T00:04:44;96502.34;;;7.17;82.09
21096;BME280;10706;49.036;12.112;2024-01-06T00:07:10;96503.56;;;7.26;83.21
21096;BME280;10706;49.036;12.112;2024-01-06T00:09:36;96506.47;;;7.25;83.28
21096;BME280;10706;49.036;12.112;2024-01-06T00:12:02;96500.56;;;7.39;82.41
21096;BME280;10706;49.036;12.112;2024-01-06T00:14:28;96497.84;;;7.34;82.22
21096;BME280;10706;49.036;12.112;2024-01-06T00:16:53;96498.31;;;7.31;82.60
21096;BME280;10706;49.036;12.112;2024-01-06T00:19:19;96491.78;;;7.39;81.42
21096;BME280;10706;49.036;12.112;2024-01-06T00:21:45;96502.09;;;7.35;81.65
21096;BME280;10706;49.036;12.112;2024-01-06T00:24:10;96496.78;;;7.35;81.93
21096;BME280;10706;49.036;12.112;2024-01-06T00:26:36;96497.16;;;7.44;82.46
21096;BME280;10706;49.036;12.112;2024-01-06T00:29:02;96494.44;;;7.39;81.86
21096;BME280;10706;49.036;12.112;2024-01-06T00:31:28;96490.47;;;7.19;83.42
21096;BME280;10706;49.036;12.112;2024-01-06T00:33:53;96487.78;;;7.36;82.36
21096;BME280;10706;49.036;12.112;2024-01-06T00:36:20;96492.16;;;7.48;82.26
21096;BME280;10706;49.036;12.112;2024-01-06T00:38:45;96496.38;;;7.44;81.37
21096;BME280;10706;49.036;12.112;2024-01-06T00:41:11;96497.66;;;7.41;81.28
21096;BME280;10706;49.036;12.112;2024-01-06T00:43:37;96489.44;;;7.43;82.07
21096;BME280;10706;49.036;12.112;2024-01-06T00:46:03;96480.91;;;7.40;82.49
21096;BME280;10706;49.036;12.112;2024-01-06T00:48:29;96492.47;;;7.51;82.16
21096;BME280;10706;49.036;12.112;2024-01-06T00:50:54;96492.47;;;7.51;81.54
21096;BME280;10706;49.036;12.112;2024-01-06T00:53:21;96497.47;;;7.48;81.78
21096;BME280;10706;49.036;12.112;2024-01-06T00:55:47;96502.91;;;7.58;81.16
21096;BME280;10706;49.036;12.112;2024-01-06T00:58:13;96499.66;;;7.51;81.55
21096;BME280;10706;49.036;12.112;2024-01-06T01:00:39;96490.06;;;7.50;82.26
21096;BME280;10706;49.036;12.112;2024-01-06T01:03:05;96493.28;;;7.52;81.31
21096;BME280;10706;49.036;12.112;2024-01-06T01:05:31;96499.91;;;7.49;82.24
21096;BME280;10706;49.036;12.112;2024-01-06T01:07:57;96497.00;;;7.51;82.04
21096;BME280;10706;49.036;12.112;2024-01-06T01:10:22;96509.22;;;7.52;81.28
21096;BME280;10706;49.036;12.112;2024-01-06T01:12:48;96509.34;;;7.40;82.20
21096;BME280;10706;49.036;12.112;2024-01-06T01:15:14;96510.06;;;7.35;83.00
21096;BME280;10706;49.036;12.112;2024-01-06T01:17:40;96514.22;;;7.48;82.22
21096;BME280;10706;49.036;12.112;2024-01-06T01:20:06;96506.25;;;7.48;82.56
21096;BME280;10706;49.036;12.112;2024-01-06T01:22:32;96505.53;;;7.53;82.47
21096;BME280;10706;49.036;12.112;2024-01-06T01:24:58;96513.50;;;7.53;81.30
21096;BME280;10706;49.036;12.112;2024-01-06T01:27:24;96513.50;;;7.53;81.30
21096;BME280;10706;49.036;12.112;2024-01-06T01:29:50;96510.44;;;7.44;81.48
21096;BME280;10706;49.036;12.112;2024-01-06T01:32:18;96518.28;;;7.34;82.04
21096;BME280;10706;49.036;12.112;2024-01-06T01:34:44;96509.09;;;7.42;82.29
21096;BME280;10706;49.036;12.112;2024-01-06T01:37:10;96508.47;;;7.34;82.03
21096;BME280;10706;49.036;12.112;2024-01-06T01:39:35;96516.97;;;7.36;81.76
21096;BME280;10706;49.036;12.112;2024-01-06T01:42:01;96520.31;;;7.49;81.79
21096;BME280;10706;49.036;12.112;2024-01-06T01:44:28;96511.56;;;7.48;81.94
21096;BME280;10706;49.036;12.112;2024-01-06T01:46:54;96510.69;;;7.43;82.40
21096;BME280;10706;49.036;12.112;2024-01-06T01:49:19;96510.75;;;7.48;81.99
21096;BME280;10706;49.036;12.112;2024-01-06T01:51:46;96500.13;;;7.48;81.86
21096;BME280;10706;49.036;12.112;2024-01-06T01:54:12;96507.31;;;7.47;82.53
21096;BME280;10706;49.036;12.112;2024-01-06T01:56:39;96500.94;;;7.48;81.79
21096;BME280;10706;49.036;12.112;2024-01-06T01:59:11;96498.78;;;7.45;82.44
21096;BME280;10706;49.036;12.112;2024-01-06T02:01:37;96503.47;;;7.38;81.99
21096;BME280;10706;49.036;12.112;2024-01-06T02:04:03;96496.97;;;7.29;82.86
21096;BME280;10706;49.036;12.112;2024-01-06T02:06:28;96490.50;;;7.42;81.96
21096;BME280;10706;49.036;12.112;2024-01-06T02:08:55;96495.25;;;7.39;82.78
21096;BME280;10706;49.036;12.112;2024-01-06T02:11:21;96489.44;;;7.43;81.86
21096;BME280;10706;49.036;12.112;2024-01-06T02:13:46;96485.75;;;7.44;82.29
21096;BME280;10706;49.036;12.112;2024-01-06T02:16:12;96490.94;;;7.16;83.45
21096;BME280;10706;49.036;12.112;2024-01-06T02:18:38;96495.13;;;7.12;82.89
21096;BME280;10706;49.036;12.112;2024-01-06T02:21:03;96495.41;;;6.77;85.18
21096;BME280;10706;49.036;12.112;2024-01-06T02:23:35;96499.66;;;6.95;83.67
21096;BME280;10706;49.036;12.112;2024-01-06T02:26:01;96495.63;;;6.92;83.49
21096;BME280;10706;49.036;12.112;2024-01-06T02:28:27;96492.81;;;6.99;83.78
21096;BME280;10706;49.036;12.112;2024-01-06T02:30:53;96501.66;;;7.05;83.76
21096;BME280;10706;49.036;12.112;2024-01-06T02:33:19;96504.84;;;7.24;83.45
21096;BME280;10706;49.036;12.112;2024-01-06T02:35:47;96501.09;;;7.19;83.38
21096;BME280;10706;49.036;12.112;2024-01-06T02:38:14;96497.53;;;7.31;82.14
21096;BME280;10706;49.036;12.112;2024-01-06T02:40:39;96502.16;;;7.40;83.04
21096;BME280;10706;49.036;12.112;2024-01-06T02:43:05;96500.97;;;7.31;83.27
21096;BME280;10706;49.036;12.112;2024-01-06T02:45:31;96498.16;;;7.38;82.73
21096;BME280;10706;49.036;12.112;2024-01-06T02:47:56;96500.56;;;7.39;82.92
21096;BME280;10706;49.036;12.112;2024-01-06T02:50:22;96506.47;;;7.47;81.89
21096;BME280;10706;49.036;12.112;2024-01-06T02:52:48;96504.31;;;7.05;83.02
21096;BME280;10706;49.036;12.112;2024-01-06T02:55:14;96504.88;;;6.90;83.33
21096;BME280;10706;49.036;12.112;2024-01-06T02:57:40;96512.28;;;6.88;84.21
21096;BME280;10706;49.036;12.112;2024-01-06T03:00:08;96513.66;;;6.90;84.39
21096;BME280;10706;49.036;12.112;2024-01-06T03:02:33;96512.72;;;7.18;83.32
21096;BME280;10706;49.036;12.112;2024-01-06T03:05:01;96512.91;;;7.12;83.66
21096;BME280;10706;49.036;12.112;2024-01-06T03:07:27;96504.63;;;7.08;83.08
21096;BME280;10706;49.036;12.112;2024-01-06T03:09:53;96515.94;;;7.20;82.41
21096;BME280;10706;49.036;12.112;2024-01-06T03:12:18;96508.84;;;7.26;82.64
21096;BME280;10706;49.036;12.112;2024-01-06T03:14:44;96500.66;;;7.28;81.98
21096;BME280;10706;49.036;12.112;2024-01-06T03:17:10;96509.16;;;7.08;83.16
21096;BME280;10706;49.036;12.112;2024-01-06T03:19:36;96497.03;;;7.17;83.07
21096;BME280;10706;49.036;12.112;2024-01-06T03:22:02;96489.75;;;7.07;83.38
21096;BME280;10706;49.036;12.112;2024-01-06T03:24:28;96498.78;;;7.06;83.86
21096;BME280;10706;49.036;12.112;2024-01-06T03:26:54;96506.19;;;7.04;83.42
21096;BME280;10706;49.036;12.112;2024-01-06T03:29:20;96504.41;;;7.32;81.76
21096;BME280;10706;49.036;12.112;2024-01-06T03:31:46;96508.78;;;7.38;80.99
21096;BME280;10706;49.036;12.112;2024-01-06T03:34:12;96515.22;;;7.25;82.62
21096;BME280;10706;49.036;12.112;2024-01-06T03:36:41;96512.03;;;7.23;82.29
21096;BME280;10706;49.036;12.112;2024-01-06T03:39:07;96511.63;;;6.97;83.77
21096;BME280;10706;49.036;12.112;2024-01-06T03:41:34;96511.50;;;6.87;83.89
21096;BME280;10706;49.036;12.112;2024-01-06T03:43:59;96514.75;;;6.77;84.68
21096;BME280;10706;49.036;12.112;2024-01-06T03:46:26;96522.09;;;6.87;84.33
21096;BME280;10706;49.036;12.112;2024-01-06T03:48:51;96511.06;;;6.95;83.53
21096;BME280;10706;49.036;12.112;2024-01-06T03:51:18;96515.25;;;6.74;84.38
21096;BME280;10706;49.036;12.112;2024-01-06T03:53:44;96511.06;;;6.45;86.44
21096;BME280;10706;49.036;12.112;2024-01-06T03:56:10;96513.41;;;6.75;84.45
21096;BME280;10706;49.036;12.112;2024-01-06T03:58:36;96518.16;;;6.73;85.62
21096;BME280;10706;49.036;12.112;2024-01-06T04:01:02;96515.81;;;6.76;85.05
21096;BME280;10706;49.036;12.112;2024-01-06T04:03:28;96512.38;;;6.76;85.16
21096;BME280;10706;49.036;12.112;2024-01-06T04:05:54;96511.63;;;6.97;84.66
21096;BME280;10706;49.036;12.112;2024-01-06T04:08:20;96523.59;;;7.00;83.86
21096;BME280;10706;49.036;12.112;2024-01-06T04:10:46;96519.44;;;7.04;83.07
21096;BME280;10706;49.036;12.112;2024-01-06T04:13:12;96525.56;;;7.05;82.51
21096;BME280;10706;49.036;12.112;2024-01-06T04:15:38;96529.97;;;7.16;82.04
21096;BME280;10706;49.036;12.112;2024-01-06T04:18:05;96529.72;;;7.17;82.20
21096;BME280;10706;49.036;12.112;2024-01-06T04:20:32;96537.44;;;7.19;82.71
21096;BME280;10706;49.036;12.112;2024-01-06T04:22:58;96533.72;;;7.20;81.92
21096;BME280;10706;49.036;12.112;2024-01-06T04:25:25;96538.91;;;6.93;83.25
21096;BME280;10706;49.036;12.112;2024-01-06T04:27:51;96537.75;;;6.72;84.23
21096;BME280;10706;49.036;12.112;2024-01-06T04:30:17;96545.41;;;6.68;84.22
21096;BME280;10706;49.036;12.112;2024-01-06T04:32:44;96550.66;;;6.97;83.91
21096;BME280;10706;49.036;12.112;2024-01-06T04:35:10;96558.59;;;6.97;83.22
21096;BME280;10706;49.036;12.112;2024-01-06T04:37:37;96544.91;;;6.71;85.02
21096;BME280;10706;49.036;12.112;2024-01-06T04:40:03;96554.09;;;6.97;83.20
21096;BME280;10706;49.036;12.112;2024-01-06T04:42:29;96554.50;;;6.89;83.93
21096;BME280;10706;49.036;12.112;2024-01-06T04:44:55;96549.84;;;7.13;83.24
21096;BME280;10706;49.036;12.112;2024-01-06T04:47:21;96555.38;;;7.12;81.84
21096;BME280;10706;49.036;12.112;2024-01-06T04:49:47;96552.88;;;7.05;82.35
21096;BME280;10706;49.036;12.112;2024-01-06T04:52:13;96546.31;;;7.08;82.70
21096;BME280;10706;49.036;12.112;2024-01-06T04:54:39;96555.06;;;6.91;82.58
21096;BME280;10706;49.036;12.112;2024-01-06T04:57:05;96557.72;;;6.91;82.77
21096;BME280;10706;49.036;12.112;2024-01-06T04:59:31;96554.31;;;6.79;83.57
21096;BME280;10706;49.036;12.112;2024-01-06T05:01:58;96562.94;;;7.03;82.98
21096;BME280;10706;49.036;12.112;2024-01-06T05:04:24;96561.34;;;6.85;82.75
21096;BME280;10706;49.036;12.112;2024-01-06T05:06:53;96563.69;;;6.98;82.55
21096;BME280;10706;49.036;12.112;2024-01-06T05:09:20;96568.41;;;6.79;83.78
21096;BME280;10706;49.036;12.112;2024-01-06T05:11:46;96568.00;;;6.88;83.16
21096;BME280;10706;49.036;12.112;2024-01-06T05:14:12;96567.03;;;6.94;83.89
21096;BME280;10706;49.036;12.112;2024-01-06T05:16:38;96571.63;;;6.98;83.78
21096;BME280;10706;49.036;12.112;2024-01-06T05:19:04;96575.88;;;6.99;83.08
21096;BME280;10706;49.036;12.112;2024-01-06T05:21:31;96570.91;;;7.03;82.78
21096;BME280;10706;49.036;12.112;2024-01-06T05:23:56;96574.34;;;7.04;83.60
21096;BME280;10706;49.036;12.112;2024-01-06T05:26:23;96570.44;;;7.06;82.97
21096;BME280;10706;49.036;12.112;2024-01-06T05:28:48;96569.91;;;6.75;84.88
21096;BME280;10706;49.036;12.112;2024-01-06T05:31:14;96573.78;;;6.39;85.24
21096;BME280;10706;49.036;12.112;2024-01-06T05:33:41;96586.97;;;6.63;85.40
21096;BME280;10706;49.036;12.112;2024-01-06T05:36:07;96577.44;;;6.50;85.21
21096;BME280;10706;49.036;12.112;2024-01-06T05:38:32;96573.97;;;6.78;84.17
21096;BME280;10706;49.036;12.112;2024-01-06T05:40:58;96581.03;;;6.72;84.35
21096;BME280;10706;49.036;12.112;2024-01-06T05:43:24;96575.72;;;6.72;84.91
21096;BME280;10706;49.036;12.112;2024-01-06T05:45:50;96584.41;;;6.39;85.37
21096;BME280;10706;49.036;12.112;2024-01-06T05:48:16;96583.81;;;6.66;84.90
21096;BME280;10706;49.036;12.112;2024-01-06T05:50:43;96578.94;;;6.91;83.93
21096;BME280;10706;49.036;12.112;2024-01-06T05:53:09;96578.94;;;6.91;83.63
21096;BME280;10706;49.036;12.112;2024-01-06T05:55:36;96581.09;;;6.94;84.38
21096;BME280;10706;49.036;12.112;2024-01-06T05:58:02;96573.97;;;6.95;83.51
21096;BME280;10706;49.036;12.112;2024-01-06T06:00:28;96580.22;;;7.06;83.57
21096;BME280;10706;49.036;12.112;2024-01-06T06:02:57;96581.28;;;7.05;83.34
21096;BME280;10706;49.036;12.112;2024-01-06T06:05:23;96584.50;;;7.07;82.92
21096;BME280;10706;49.036;12.112;2024-01-06T06:07:49;96585.03;;;6.75;84.62
21096;BME280;10706;49.036;12.112;2024-01-06T06:10:15;96597.69;;;6.56;85.33
21096;BME280;10706;49.036;12.112;2024-01-06T06:12:42;96596.97;;;6.89;83.91
21096;BME280;10706;49.036;12.112;2024-01-06T06:15:08;96602.34;;;6.94;83.19
21096;BME280;10706;49.036;12.112;2024-01-06T06:17:34;96604.69;;;6.91;83.15
21096;BME280;10706;49.036;12.112;2024-01-06T06:19:59;96602.91;;;6.96;83.49
21096;BME280;10706;49.036;12.112;2024-01-06T06:22:29;96609.41;;;7.06;83.51
21096;BME280;10706;49.036;12.112;2024-01-06T06:24:58;96602.34;;;6.94;82.88
21096;BME280;10706;49.036;12.112;2024-01-06T06:27:25;96611.34;;;6.93;83.20
21096;BME280;10706;49.036;12.112;2024-01-06T06:29:51;96610.78;;;6.91;83.35
21096;BME280;10706;49.036;12.112;2024-01-06T06:32:16;96601.72;;;6.87;83.09
21096;BME280;10706;49.036;12.112;2024-01-06T06:34:42;96612.31;;;6.87;82.97
21096;BME280;10706;49.036;12.112;2024-01-06T06:37:08;96625.09;;;6.90;83.16
21096;BME280;10706;49.036;12.112;2024-01-06T06:39:34;96632.69;;;6.98;82.44
21096;BME280;10706;49.036;12.112;2024-01-06T06:42:01;96639.31;;;6.84;83.06
21096;BME280;10706;49.036;12.112;2024-01-06T06:44:28;96641.72;;;6.86;83.50
21096;BME280;10706;49.036;12.112;2024-01-06T06:46:55;96641.25;;;6.89;82.80
21096;BME280;10706;49.036;12.112;2024-01-06T06:49:21;96645.84;;;6.93;83.03
21096;BME280;10706;49.036;12.112;2024-01-06T06:51:48;96644.53;;;6.79;83.46
21096;BME280;10706;49.036;12.112;2024-01-06T06:54:14;96647.19;;;6.79;82.92
21096;BME280;10706;49.036;12.112;2024-01-06T06:56:42;96655.56;;;6.88;82.92
21096;BME280;10706;49.036;12.112;2024-01-06T06:59:08;96664.00;;;6.85;83.26
21096;BME280;10706;49.036;12.112;2024-01-06T07:01:34;96666.88;;;6.83;83.16
21096;BME280;10706;49.036;12.112;2024-01-06T07:04:01;96674.03;;;6.82;82.91
21096;BME280;10706;49.036;12.112;2024-01-06T07:06:28;96677.50;;;6.83;82.90
21096;BME280;10706;49.036;12.112;2024-01-06T07:08:55;96681.31;;;6.75;83.46
21096;BME280;10706;49.036;12.112;2024-01-06T07:11:20;96691.00;;;6.81;82.81
21096;BME280;10706;49.036;12.112;2024-01-06T07:13:47;96689.81;;;6.89;82.45
21096;BME280;10706;49.036;12.112;2024-01-06T07:16:13;96690.75;;;6.83;82.43
21096;BME280;10706;49.036;12.112;2024-01-06T07:18:38;96692.19;;;6.33;85.20
21096;BME280;10706;49.036;12.112;2024-01-06T07:21:06;96703.88;;;5.97;86.67
21096;BME280;10706;49.036;12.112;2024-01-06T07:23:34;96694.19;;;6.14;86.19
21096;BME280;10706;49.036;12.112;2024-01-06T07:26:00;96696.88;;;6.43;85.40
21096;BME280;10706;49.036;12.112;2024-01-06T07:28:26;96696.22;;;6.76;83.98
21096;BME280;10706;49.036;12.112;2024-01-06T07:30:53;96708.06;;;6.45;85.36
21096;BME280;10706;49.036;12.112;2024-01-06T07:33:18;96710.78;;;6.21;86.02
21096;BME280;10706;49.036;12.112;2024-01-06T07:35:44;96715.81;;;6.23;86.26
21096;BME280;10706;49.036;12.112;2024-01-06T07:38:11;96716.63;;;6.35;85.53
21096;BME280;10706;49.036;12.112;2024-01-06T07:40:37;96712.63;;;6.61;85.42
21096;BME280;10706;49.036;12.112;2024-01-06T07:43:03;96713.09;;;6.58;84.70
21096;BME280;10706;49.036;12.112;2024-01-06T07:45:30;96712.88;;;6.60;84.90
21096;BME280;10706;49.036;12.112;2024-01-06T07:47:58;96715.69;;;7.11;82.13
21096;BME280;10706;49.036;12.112;2024-01-06T07:50:24;96722.50;;;6.78;83.78
21096;BME280;10706;49.036;12.112;2024-01-06T07:52:49;96721.63;;;7.01;82.21
21096;BME280;10706;49.036;12.112;2024-01-06T07:55:15;96717.34;;;7.00;82.79
21096;BME280;10706;49.036;12.112;2024-01-06T07:57:42;96727.91;;;7.12;82.50
21096;BME280;10706;49.036;12.112;2024-01-06T08:00:08;96724.59;;;7.05;82.96
21096;BME280;10706;49.036;12.112;2024-01-06T08:02:34;96722.28;;;7.08;82.97
21096;BME280;10706;49.036;12.112;2024-01-06T08:05:00;96725.28;;;7.12;81.57
21096;BME280;10706;49.036;12.112;2024-01-06T08:07:26;96722.00;;;6.93;82.43
21096;BME280;10706;49.036;12.112;2024-01-06T08:09:52;96718.81;;;6.79;83.59
21096;BME280;10706;49.036;12.112;2024-01-06T08:12:18;96719.53;;;7.03;83.24
21096;BME280;10706;49.036;12.112;2024-01-06T08:14:44;96725.94;;;7.19;81.39
21096;BME280;10706;49.036;12.112;2024-01-06T08:17:09;96731.06;;;7.26;81.51
21096;BME280;10706;49.036;12.112;2024-01-06T08:19:35;96735.94;;;6.59;83.96
21096;BME280;10706;49.036;12.112;2024-01-06T08:22:01;96740.94;;;6.20;85.47
21096;BME280;10706;49.036;12.112;2024-01-06T08:24:27;96744.84;;;6.53;85.45
21096;BME280;10706;49.036;12.112;2024-01-06T08:26:53;96751.19;;;6.29;85.69
21096;BME280;10706;49.036;12.112;2024-01-06T08:29:18;96754.78;;;5.99;86.72
21096;BME280;10706;49.036;12.112;2024-01-06T08:31:45;96753.00;;;5.81;87.84
21096;BME280;10706;49.036;12.112;2024-01-06T08:34:11;96756.72;;;5.92;88.10
21096;BME280;10706;49.036;12.112;2024-01-06T08:36:37;96742.22;;;6.30;87.17
21096;BME280;10706;49.036;12.112;2024-01-06T08:39:03;96753.53;;;6.77;85.37
21096;BME280;10706;49.036;12.112;2024-01-06T08:41:28;96750.97;;;6.82;84.40
21096;BME280;10706;49.036;12.112;2024-01-06T08:43:54;96753.34;;;6.96;84.85
21096;BME280;10706;49.036;12.112;2024-01-06T08:46:20;96753.44;;;7.30;82.84
21096;BME280;10706;49.036;12.112;2024-01-06T08:48:45;96758.16;;;7.11;83.50
21096;BME280;10706;49.036;12.112;2024-01-06T08:51:11;96758.06;;;7.34;79.95
21096;BME280;10706;49.036;12.112;2024-01-06T08:53:37;96771.56;;;7.33;81.50
21096;BME280;10706;49.036;12.112;2024-01-06T08:56:03;96766.63;;;6.96;82.82
21096;BME280;10706;49.036;12.112;2024-01-06T08:58:29;96768.78;;;7.39;80.69
21096;BME280;10706;49.036;12.112;2024-01-06T09:00:54;96775.28;;;7.49;81.99
21096;BME280;10706;49.036;12.112;2024-01-06T09:03:20;96782.03;;;7.11;82.61
21096;BME280;10706;49.036;12.112;2024-01-06T09:05:56;96780.00;;;7.58;80.53
21096;BME280;10706;49.036;12.112;2024-01-06T09:08:23;96780.47;;;7.72;79.64
21096;BME280;10706;49.036;12.112;2024-01-06T09:10:50;96777.00;;;7.26;80.50
21096;BME280;10706;49.036;12.112;2024-01-06T09:13:17;96780.63;;;7.66;79.16
21096;BME280;10706;49.036;12.112;2024-01-06T09:15:43;96781.13;;;7.79;78.42
21096;BME280;10706;49.036;12.112;2024-01-06T09:18:09;96786.84;;;7.26;79.47
21096;BME280;10706;49.036;12.112;2024-01-06T09:20:35;96784.09;;;7.66;79.02
21096;BME280;10706;49.036;12.112;2024-01-06T09:23:01;96781.09;;;7.46;80.51
21096;BME280;10706;49.036;12.112;2024-01-06T09:25:27;96790.22;;;7.21;80.96
21096;BME280;10706;49.036;12.112;2024-01-06T09:27:53;96786.56;;;7.56;79.87
21096;BME280;10706;49.036;12.112;2024-01-06T09:30:19;96795.19;;;7.63;79.78
21096;BME280;10706;49.036;12.112;2024-01-06T09:32:44;96789.66;;;7.82;79.57
21096;BME280;10706;49.036;12.112;2024-01-06T09:35:10;96793.22;;;7.87;77.77
21096;BME280;10706;49.036;12.112;2024-01-06T09:37:36;96794.44;;;7.96;76.94
21096;BME280;10706;49.036;12.112;2024-01-06T09:40:02;96795.13;;;7.92;77.94
21096;BME280;10706;49.036;12.112;2024-01-06T09:42:28;96792.25;;;8.10;76.22
21096;BME280;10706;49.036;12.112;2024-01-06T09:44:54;96801.44;;;8.03;77.71
21096;BME280;10706;49.036;12.112;2024-01-06T09:47:22;96799.19;;;7.49;79.89
21096;BME280;10706;49.036;12.112;2024-01-06T09:49:52;96796.69;;;7.42;80.69
21096;BME280;10706;49.036;12.112;2024-01-06T09:52:22;96793.53;;;7.74;80.63
21096;BME280;10706;49.036;12.112;2024-01-06T09:54:53;96797.66;;;7.98;78.84
21096;BME280;10706;49.036;12.112;2024-01-06T09:57:23;96796.19;;;8.08;77.98
21096;BME280;10706;49.036;12.112;2024-01-06T09:59:48;96794.34;;;8.42;76.19
21096;BME280;10706;49.036;12.112;2024-01-06T10:02:16;96799.97;;;8.29;75.56
21096;BME280;10706;49.036;12.112;2024-01-06T10:04:44;96796.28;;;8.13;75.61
21096;BME280;10706;49.036;12.112;2024-01-06T10:07:11;96791.84;;;8.02;77.15
21096;BME280;10706;49.036;12.112;2024-01-06T10:09:40;96800.44;;;7.92;77.67
21096;BME280;10706;49.036;12.112;2024-01-06T10:12:07;96785.22;;;8.21;77.15
21096;BME280;10706;49.036;12.112;2024-01-06T10:14:33;96789.41;;;8.34;75.33
21096;BME280;10706;49.036;12.112;2024-01-06T10:16:59;96782.53;;;8.38;75.57
21096;BME280;10706;49.036;12.112;2024-01-06T10:19:25;96786.50;;;8.35;76.22
21096;BME280;10706;49.036;12.112;2024-01-06T10:21:51;96791.09;;;8.40;75.35
21096;BME280;10706;49.036;12.112;2024-01-06T10:24:19;96795.03;;;8.54;76.56
21096;BME280;10706;49.036;12.112;2024-01-06T10:26:46;96793.28;;;8.43;75.41
21096;BME280;10706;49.036;12.112;2024-01-06T10:29:13;96799.56;;;8.76;74.40
21096;BME280;10706;49.036;12.112;2024-01-06T10:31:40;96791.66;;;8.81;73.60
21096;BME280;10706;49.036;12.112;2024-01-06T10:34:06;96797.94;;;8.92;73.52
21096;BME280;10706;49.036;12.112;2024-01-06T10:36:32;96799.75;;;8.91;73.73
21096;BME280;10706;49.036;12.112;2024-01-06T10:38:58;96802.06;;;9.05;74.62
21096;BME280;10706;49.036;12.112;2024-01-06T10:41:24;96803.28;;;8.53;75.95
21096;BME280;10706;49.036;12.112;2024-01-06T10:43:51;96807.63;;;8.81;75.66
21096;BME280;10706;49.036;12.112;2024-01-06T10:46:19;96809.94;;;8.38;76.01
21096;BME280;10706;49.036;12.112;2024-01-06T10:48:46;96813.47;;;7.59;75.96
21096;BME280;10706;49.036;12.112;2024-01-06T10:51:13;96799.97;;;7.95;76.28
21096;BME280;10706;49.036;12.112;2024-01-06T10:53:43;96806.16;;;8.51;75.00
21096;BME280;10706;49.036;12.112;2024-01-06T10:56:09;96800.22;;;8.44;76.73
21096;BME280;10706;49.036;12.112;2024-01-06T10:58:48;96805.34;;;9.12;75.04
21096;BME280;10706;49.036;12.112;2024-01-06T11:01:23;96801.31;;;9.59;72.04
21096;BME280;10706;49.036;12.112;2024-01-06T11:03:53;96803.13;;;9.53;72.66
21096;BME280;10706;49.036;12.112;2024-01-06T11:06:21;96793.66;;;9.40;72.45
21096;BME280;10706;49.036;12.112;2024-01-06T11:11:39;96784.22;;;9.82;70.75
21096;BME280;10706;49.036;12.112;2024-01-06T11:14:28;96773.22;;;8.97;72.57
21096;BME280;10706;49.036;12.112;2024-01-06T11:16:54;96778.28;;;8.98;71.96
21096;BME280;10706;49.036;12.112;2024-01-06T11:22:30;96759.59;;;8.93;71.85
21096;BME280;10706;49.036;12.112;2024-01-06T11:25:14;96770.53;;;8.97;71.04
21096;BME280;10706;49.036;12.112;2024-01-06T11:27:46;96780.94;;;8.20;74.33
21096;BME280;10706;49.036;12.112;2024-01-06T11:30:26;96775.88;;;8.52;74.02
21096;BME280;10706;49.036;12.112;2024-01-06T11:32:56;96773.22;;;8.35;75.27
21096;BME280;10706;49.036;12.112;2024-01-06T11:35:27;96770.06;;;9.00;70.95
21096;BME280;10706;49.036;12.112;2024-01-06T11:37:56;96773.91;;;8.87;71.66
21096;BME280;10706;49.036;12.112;2024-01-06T11:40:23;96772.59;;;7.77;75.88
21096;BME280;10706;49.036;12.112;2024-01-06T11:43:09;96769.94;;;7.77;74.80
21096;BME280;10706;49.036;12.112;2024-01-06T11:45:38;96771.81;;;7.94;75.16
21096;BME280;10706;49.036;12.112;2024-01-06T11:48:08;96782.25;;;7.84;75.85
21096;BME280;10706;49.036;12.112;2024-01-06T11:50:36;96767.28;;;7.94;76.46
21096;BME280;10706;49.036;12.112;2024-01-06T11:53:04;96777.69;;;8.13;75.83
21096;BME280;10706;49.036;12.112;2024-01-06T11:55:30;96778.28;;;8.54;74.13
21096;BME280;10706;49.036;12.112;2024-01-06T11:57:58;96777.38;;;8.65;73.64
21096;BME280;10706;49.036;12.112;2024-01-06T12:00:28;96778.97;;;8.88;72.72
21096;BME280;10706;49.036;12.112;2024-01-06T12:02:59;96768.88;;;7.95;76.41
21096;BME280;10706;49.036;12.112;2024-01-06T12:05:26;96764.84;;;8.27;72.63
21096;BME280;10706;49.036;12.112;2024-01-06T12:08:01;96767.06;;;8.52;72.71
21096;BME280;10706;49.036;12.112;2024-01-06T12:10:30;96771.78;;;8.28;73.76
21096;BME280;10706;49.036;12.112;2024-01-06T12:13:07;96763.00;;;8.10;74.67
21096;BME280;10706;49.036;12.112;2024-01-06T12:15:34;96765.56;;;8.39;72.54
21096;BME280;10706;49.036;12.112;2024-01-06T12:18:03;96767.38;;;8.55;73.15
21096;BME280;10706;49.036;12.112;2024-01-06T12:20:29;96762.19;;;8.66;71.39
21096;BME280;10706;49.036;12.112;2024-01-06T12:22:56;96765.22;;;8.74;71.00
21096;BME280;10706;49.036;12.112;2024-01-06T12:25:23;96767.78;;;8.86;70.94
21096;BME280;10706;49.036;12.112;2024-01-06T12:27:49;96766.78;;;8.70;71.36
21096;BME280;10706;49.036;12.112;2024-01-06T12:30:21;96771.13;;;8.77;71.77
21096;BME280;10706;49.036;12.112;2024-01-06T12:32:49;96767.13;;;8.57;72.75
21096;BME280;10706;49.036;12.112;2024-01-06T12:35:16;96767.09;;;8.18;74.21
21096;BME280;10706;49.036;12.112;2024-01-06T12:37:42;96767.50;;;8.44;73.01
21096;BME280;10706;49.036;12.112;2024-01-06T12:40:12;96771.41;;;8.58;73.70
21096;BME280;10706;49.036;12.112;2024-01-06T12:42:38;96759.91;;;8.74;72.37
21096;BME280;10706;49.036;12.112;2024-01-06T12:45:08;96761.13;;;8.28;72.55
21096;BME280;10706;49.036;12.112;2024-01-06T12:47:47;96757.59;;;7.54;76.23
21096;BME280;10706;49.036;12.112;2024-01-06T12:50:17;96756.00;;;8.04;75.24
21096;BME280;10706;49.036;12.112;2024-01-06T12:52:47;96759.16;;;8.40;73.31
21096;BME280;10706;49.036;12.112;2024-01-06T12:55:16;96754.34;;;8.54;71.96
21096;BME280;10706;49.036;12.112;2024-01-06T12:57:42;96747.56;;;8.46;71.33
21096;BME280;10706;49.036;12.112;2024-01-06T13:00:09;96745.47;;;8.48;72.33
21096;BME280;10706;49.036;12.112;2024-01-06T13:02:37;96752.19;;;8.17;73.24
21096;BME280;10706;49.036;12.112;2024-01-06T13:05:04;96739.34;;;8.48;72.46